createdAt,value
2019-05-14T00:00:32.075Z,3.72
2019-05-14T00:01:45.040Z,5.75
2019-05-14T00:02:58.480Z,5.67
2019-05-14T00:04:12.113Z,3.08
2019-05-14T00:05:25.585Z,5.83
2019-05-14T00:06:41.841Z,4.35
2019-05-14T00:07:54.934Z,3.60
2019-05-14T00:09:08.557Z,5.03
2019-05-14T00:10:22.101Z,3.98
2019-05-14T00:11:35.813Z,4.00
2019-05-14T00:12:51.254Z,5.55
2019-05-14T00:14:04.650Z,4.22
2019-05-14T00:15:18.089Z,3.17
2019-05-14T00:16:31.736Z,6.75
2019-05-14T00:17:45.184Z,3.90
2019-05-14T00:18:58.816Z,3.33
2019-05-14T00:20:13.187Z,7.33
2019-05-14T00:21:27.191Z,5.92
2019-05-14T00:22:41.721Z,4.90
2019-05-14T00:23:55.775Z,4.20
2019-05-14T00:25:11.738Z,8.43
2019-05-14T00:26:25.526Z,7.42
2019-05-14T00:27:41.270Z,7.37
2019-05-14T00:28:54.312Z,3.65
2019-05-14T00:30:07.749Z,4.87
2019-05-14T00:31:21.480Z,8.58
2019-05-14T00:32:34.916Z,7.40
2019-05-14T00:33:48.546Z,5.47
2019-05-14T00:35:02.206Z,7.08
2019-05-14T00:36:16.685Z,3.70
2019-05-14T00:37:32.162Z,5.22
2019-05-14T00:38:45.541Z,5.95
2019-05-14T00:40:01.152Z,6.33
2019-05-14T00:41:14.354Z,8.75
2019-05-14T00:42:27.801Z,6.25
2019-05-14T00:43:41.685Z,5.75
2019-05-14T00:44:57.994Z,6.40
2019-05-14T00:46:11.801Z,4.83
2019-05-14T00:47:25.459Z,6.67
2019-05-14T00:48:39.156Z,6.70
2019-05-14T00:49:52.596Z,4.83
2019-05-14T00:51:06.250Z,3.52
2019-05-14T00:52:22.058Z,5.45
2019-05-14T00:53:35.117Z,5.90
2019-05-14T00:54:48.569Z,6.60
2019-05-14T00:56:02.441Z,4.87
2019-05-14T00:57:15.904Z,7.45
2019-05-14T00:58:31.041Z,4.60
2019-05-14T00:59:44.572Z,7.00
2019-05-14T01:00:58.276Z,5.80
2019-05-14T01:02:11.773Z,3.10
2019-05-14T01:03:25.437Z,8.53
2019-05-14T01:04:38.912Z,5.83
2019-05-14T01:05:52.537Z,8.50
2019-05-14T01:07:05.997Z,5.92
2019-05-14T01:08:21.460Z,5.35
2019-05-14T01:09:34.784Z,5.10
2019-05-14T01:10:48.417Z,4.55
2019-05-14T01:12:02.031Z,5.40
2019-05-14T01:13:15.691Z,3.37
2019-05-14T01:14:31.310Z,5.03
2019-05-14T01:15:44.498Z,6.12
2019-05-14T01:16:57.951Z,6.37
2019-05-14T01:18:11.572Z,4.72
2019-05-14T01:19:26.541Z,6.85
2019-05-14T01:20:41.202Z,3.72
2019-05-14T01:21:54.865Z,8.03
2019-05-14T01:23:08.489Z,7.92
2019-05-14T01:24:21.938Z,6.12
2019-05-14T01:25:35.588Z,6.78
2019-05-14T01:26:49.112Z,4.72
2019-05-14T01:28:02.741Z,6.62
2019-05-14T01:29:16.251Z,4.17
2019-05-14T01:30:31.738Z,6.33
2019-05-14T01:31:45.056Z,5.58
2019-05-14T01:32:58.701Z,4.30
2019-05-14T01:34:12.150Z,6.45
2019-05-14T01:35:25.781Z,6.78
2019-05-14T01:36:41.204Z,6.00
2019-05-14T01:37:54.721Z,3.58
2019-05-14T01:39:08.250Z,6.83
2019-05-14T01:40:21.994Z,4.67
2019-05-14T01:41:35.520Z,4.67
2019-05-14T01:42:49.161Z,5.33
2019-05-14T01:44:02.601Z,7.03
2019-05-14T01:45:25.057Z,4.05
2019-05-14T01:46:31.769Z,4.08
2019-05-14T01:47:45.472Z,9.95
2019-05-14T01:49:01.343Z,7.42
2019-05-14T01:50:14.309Z,8.53
2019-05-14T01:51:27.766Z,4.87
2019-05-14T01:52:41.771Z,4.25
2019-05-14T01:53:55.315Z,7.92
2019-05-14T01:55:11.208Z,5.83
2019-05-14T01:56:24.192Z,4.90
2019-05-14T01:57:37.825Z,7.42
2019-05-14T01:58:52.332Z,5.08
2019-05-14T02:00:08.600Z,8.05
2019-05-14T02:01:22.297Z,4.75
2019-05-14T02:02:35.945Z,5.92
2019-05-14T02:03:51.630Z,5.97
2019-05-14T02:05:06.398Z,5.30
2019-05-14T02:06:21.260Z,5.35
2019-05-14T02:07:35.063Z,5.83
2019-05-14T02:08:48.505Z,6.00
2019-05-14T02:10:02.135Z,6.42
2019-05-14T02:11:15.648Z,5.17
2019-05-14T02:12:31.362Z,8.00
2019-05-14T02:13:44.730Z,5.47
2019-05-14T02:14:58.355Z,3.47
2019-05-14T02:16:13.048Z,7.70
2019-05-14T02:17:26.914Z,5.20
2019-05-14T02:18:41.661Z,5.20
2019-05-14T02:19:55.403Z,5.35
2019-05-14T02:21:08.844Z,4.00
2019-05-14T02:22:22.481Z,6.70
2019-05-14T02:23:36.015Z,5.17
2019-05-14T02:24:51.763Z,3.27
2019-05-14T02:26:04.834Z,7.28
2019-05-14T02:27:18.469Z,8.98
2019-05-14T02:28:31.940Z,6.53
2019-05-14T02:29:45.639Z,8.55
2019-05-14T02:31:03.074Z,6.22
2019-05-14T02:32:14.414Z,6.80
2019-05-14T02:33:30.580Z,5.20
2019-05-14T02:34:43.237Z,7.05
2019-05-14T02:35:59.699Z,6.87
2019-05-14T02:37:12.098Z,5.85
2019-05-14T02:38:25.542Z,9.28
2019-05-14T02:39:40.970Z,5.87
2019-05-14T02:40:54.425Z,7.47
2019-05-14T02:42:09.570Z,5.58
2019-05-14T02:43:23.383Z,7.22
2019-05-14T02:44:40.298Z,8.03
2019-05-14T02:46:05.977Z,5.03
2019-05-14T02:47:09.886Z,8.38
2019-05-14T02:48:22.717Z,7.35
2019-05-14T02:49:39.296Z,7.35
2019-05-14T02:50:51.528Z,4.22
2019-05-14T02:52:05.157Z,9.80
2019-05-14T02:53:19.798Z,4.62
2019-05-14T02:54:33.922Z,8.93
2019-05-14T02:55:49.822Z,4.70
2019-05-14T02:57:02.807Z,4.45
2019-05-14T02:58:20.215Z,7.65
2019-05-14T02:59:31.624Z,7.85
2019-05-14T03:00:45.154Z,8.63
2019-05-14T03:01:59.198Z,4.17
2019-05-14T03:03:12.800Z,10.10
2019-05-14T03:04:29.789Z,5.90
2019-05-14T03:05:41.584Z,4.50
2019-05-14T03:06:55.429Z,5.72
2019-05-14T03:08:09.178Z,4.95
2019-05-14T03:09:22.870Z,5.42
2019-05-14T03:10:36.326Z,8.25
2019-05-14T03:11:50.020Z,7.20
2019-05-14T03:13:03.549Z,3.83
2019-05-14T03:14:19.597Z,4.55
2019-05-14T03:15:32.981Z,7.40
2019-05-14T03:16:49.326Z,6.25
2019-05-14T03:18:01.914Z,5.53
2019-05-14T03:19:15.621Z,4.50
2019-05-14T03:20:29.286Z,8.40
2019-05-14T03:21:42.938Z,6.08
2019-05-14T03:23:05.182Z,4.30
2019-05-14T03:24:11.841Z,5.75
2019-05-14T03:25:25.303Z,10.08
2019-05-14T03:26:39.873Z,8.03
2019-05-14T03:27:53.792Z,5.35
2019-05-14T03:29:09.862Z,4.97
2019-05-14T03:30:23.578Z,9.60
2019-05-14T03:31:41.896Z,7.15
2019-05-14T03:32:53.592Z,9.25
2019-05-14T03:34:12.636Z,4.67
2019-05-14T03:35:24.583Z,4.05
2019-05-14T03:36:43.169Z,4.55
2019-05-14T03:37:53.137Z,6.65
2019-05-14T03:39:10.216Z,8.18
2019-05-14T03:40:22.361Z,5.25
2019-05-14T03:41:39.339Z,4.80
2019-05-14T03:42:51.161Z,5.05
2019-05-14T03:44:04.803Z,6.37
2019-05-14T03:45:19.513Z,4.55
2019-05-14T03:46:45.841Z,4.80
2019-05-14T03:47:50.394Z,5.85
2019-05-14T03:49:04.429Z,7.37
2019-05-14T03:50:19.208Z,7.12
2019-05-14T03:51:33.029Z,7.80
2019-05-14T03:52:49.575Z,7.05
2019-05-14T03:54:07.435Z,5.05
2019-05-14T03:55:19.934Z,6.28
2019-05-14T03:56:32.370Z,7.47
2019-05-14T03:57:46.025Z,6.28
2019-05-14T03:59:00.175Z,8.85
2019-05-14T04:00:13.810Z,4.85
2019-05-14T04:01:29.632Z,5.92
2019-05-14T04:02:42.918Z,4.53
2019-05-14T04:03:59.314Z,3.58
2019-05-14T04:05:11.741Z,6.40
2019-05-14T04:06:25.550Z,5.85
2019-05-14T04:07:39.439Z,5.03
2019-05-14T04:08:53.180Z,7.33
2019-05-14T04:10:09.442Z,5.37
2019-05-14T04:11:22.532Z,8.10
2019-05-14T04:12:36.508Z,8.93
2019-05-14T04:13:52.726Z,6.53
2019-05-14T04:15:06.167Z,6.50
2019-05-14T04:16:20.329Z,5.12
2019-05-14T04:17:41.133Z,7.03
2019-05-14T04:18:50.697Z,10.20
2019-05-14T04:20:09.171Z,7.62
2019-05-14T04:21:21.827Z,5.00
2019-05-14T04:22:35.553Z,7.97
2019-05-14T04:23:51.026Z,5.00
2019-05-14T04:25:10.557Z,5.65
2019-05-14T04:26:22.920Z,8.23
2019-05-14T04:27:40.166Z,6.95
2019-05-14T04:29:00.859Z,8.23
2019-05-14T04:30:24.298Z,6.58
2019-05-14T04:31:41.202Z,5.80
2019-05-14T04:33:01.845Z,7.42
2019-05-14T04:34:12.866Z,8.25
2019-05-14T04:35:29.418Z,5.95
2019-05-14T04:36:41.858Z,4.65
2019-05-14T04:37:55.312Z,7.92
2019-05-14T04:39:09.697Z,5.30
2019-05-14T04:40:23.289Z,8.58
2019-05-14T04:41:39.448Z,5.03
2019-05-14T04:42:59.057Z,5.25
2019-05-14T04:44:10.082Z,9.13
2019-05-14T04:45:23.566Z,9.80
2019-05-14T04:46:39.503Z,5.70
2019-05-14T04:47:52.358Z,8.00
2019-05-14T04:49:09.341Z,8.10
2019-05-14T04:50:25.282Z,8.38
2019-05-14T04:51:39.700Z,8.35
2019-05-14T04:52:53.532Z,6.28
2019-05-14T04:54:11.431Z,10.03
2019-05-14T04:55:29.680Z,12.10
2019-05-14T04:56:42.947Z,10.72
2019-05-14T04:58:01.911Z,10.48
2019-05-14T04:59:15.560Z,6.08
2019-05-14T05:00:30.463Z,10.00
2019-05-14T05:01:44.484Z,5.53
2019-05-14T05:02:59.953Z,10.03
2019-05-14T05:04:13.502Z,5.03
2019-05-14T05:05:29.711Z,8.88
2019-05-14T05:06:44.571Z,10.98
2019-05-14T05:09:50.807Z,9.90
2019-05-14T05:10:51.511Z,4.37
2019-05-14T05:12:09.115Z,10.72
2019-05-14T05:13:43.581Z,13.18
2019-05-14T05:14:58.681Z,7.20
2019-05-14T05:16:14.482Z,5.45
2019-05-14T05:17:42.820Z,7.92
2019-05-14T05:18:44.480Z,12.73
2019-05-14T05:20:01.125Z,10.23
2019-05-14T05:21:14.801Z,13.43
2019-05-14T05:22:28.681Z,6.17
2019-05-14T05:23:42.261Z,11.08
2019-05-14T05:24:56.121Z,7.28
2019-05-14T05:26:09.630Z,5.75
2019-05-14T05:27:23.254Z,7.20
2019-05-14T05:28:38.901Z,9.60
2019-05-14T05:29:52.274Z,9.20
2019-05-14T05:31:06.062Z,4.97
2019-05-14T05:32:19.714Z,6.65
2019-05-14T05:33:33.220Z,3.95
2019-05-14T05:34:48.285Z,6.40
2019-05-14T05:36:01.963Z,10.80
2019-05-14T05:37:15.861Z,8.20
2019-05-14T05:38:29.545Z,12.07
2019-05-14T05:39:43.334Z,8.33
2019-05-14T05:40:59.890Z,4.92
2019-05-14T05:42:12.135Z,6.72
2019-05-14T05:43:25.605Z,8.85
2019-05-14T05:44:39.574Z,7.12
2019-05-14T05:45:53.258Z,8.03
2019-05-14T05:47:09.290Z,4.20
2019-05-14T05:48:22.270Z,6.60
2019-05-14T05:49:38.022Z,7.75
2019-05-14T05:50:51.153Z,9.13
2019-05-14T05:52:04.797Z,8.75
2019-05-14T05:53:19.422Z,10.90
2019-05-14T05:54:33.136Z,7.42
2019-05-14T05:55:48.479Z,8.53
2019-05-14T05:57:01.942Z,5.55
2019-05-14T05:58:15.390Z,6.70
2019-05-14T05:59:29.525Z,8.40
2019-05-14T06:00:43.212Z,4.53
2019-05-14T06:01:58.716Z,5.50
2019-05-14T06:03:12.339Z,4.83
2019-05-14T06:04:28.768Z,7.05
2019-05-14T06:05:41.443Z,8.28
2019-05-14T06:06:55.169Z,6.50
2019-05-14T06:08:08.756Z,5.15
2019-05-14T06:09:22.458Z,6.65
2019-05-14T06:10:35.973Z,5.85
2019-05-14T06:11:49.616Z,6.42
2019-05-14T06:13:03.629Z,7.97
2019-05-14T06:14:18.662Z,5.78
2019-05-14T06:15:44.622Z,9.18
2019-05-14T06:16:48.842Z,5.22
2019-05-14T06:18:14.108Z,5.45
2019-05-14T06:19:18.625Z,11.00
2019-05-14T06:20:32.078Z,9.45
2019-05-14T06:21:48.731Z,8.78
2019-05-14T06:23:01.159Z,8.45
2019-05-14T06:24:14.872Z,7.22
2019-05-14T06:25:31.369Z,7.22
2019-05-14T06:26:44.658Z,6.25
2019-05-14T06:27:59.062Z,5.60
2019-05-14T06:29:12.725Z,11.33
2019-05-14T06:30:34.341Z,5.10
2019-05-14T06:31:49.511Z,6.90
2019-05-14T06:33:03.140Z,4.42
2019-05-14T06:34:18.705Z,7.53
2019-05-14T06:35:32.102Z,9.80
2019-05-14T06:36:48.355Z,4.90
2019-05-14T06:38:04.213Z,4.42
2019-05-14T06:39:18.338Z,8.03
2019-05-14T06:40:34.614Z,7.00
2019-05-14T06:41:49.878Z,5.67
2019-05-14T06:43:04.808Z,6.72
2019-05-14T06:44:18.883Z,6.30
2019-05-14T06:45:32.341Z,6.10
2019-05-14T06:46:49.030Z,6.33
2019-05-14T06:48:02.782Z,3.65
2019-05-14T06:49:18.318Z,7.25
2019-05-14T06:50:33.204Z,6.28
2019-05-14T06:51:48.928Z,4.75
2019-05-14T06:53:03.668Z,6.25
2019-05-14T06:54:19.695Z,3.67
2019-05-14T06:55:32.726Z,6.53
2019-05-14T06:56:48.652Z,5.53
2019-05-14T06:58:01.789Z,6.47
2019-05-14T06:59:18.214Z,11.83
2019-05-14T07:00:34.569Z,5.58
2019-05-14T07:01:49.016Z,8.73
2019-05-14T07:03:04.292Z,3.83
2019-05-14T07:04:19.556Z,4.03
2019-05-14T07:05:34.906Z,9.13
2019-05-14T07:06:48.699Z,21.68
2019-05-14T07:08:02.179Z,44.48
2019-05-14T07:09:18.451Z,47.15
2019-05-14T07:10:32.062Z,8.33
2019-05-14T07:11:45.925Z,8.00
2019-05-14T07:12:59.433Z,5.83
2019-05-14T07:14:13.069Z,4.25
2019-05-14T07:15:28.843Z,7.33
2019-05-14T07:16:43.577Z,5.70
2019-05-14T07:17:58.423Z,4.08
2019-05-14T07:19:12.144Z,4.55
2019-05-14T07:20:25.588Z,3.20
2019-05-14T07:21:41.138Z,3.87
2019-05-14T07:22:54.669Z,3.92
2019-05-14T07:24:09.577Z,9.35
2019-05-14T07:25:23.025Z,7.00
2019-05-14T07:26:38.749Z,4.50
2019-05-14T07:27:51.843Z,3.62
2019-05-14T07:29:05.485Z,7.12
2019-05-14T07:30:19.415Z,5.37
2019-05-14T07:31:34.596Z,4.35
2019-05-14T07:32:49.677Z,7.30
2019-05-14T07:34:03.322Z,4.30
2019-05-14T07:35:18.347Z,4.62
2019-05-14T07:36:32.169Z,6.35
2019-05-14T07:37:45.633Z,6.10
2019-05-14T07:39:00.327Z,5.85
2019-05-14T07:40:14.004Z,5.00
2019-05-14T07:41:28.465Z,7.22
2019-05-14T07:42:43.775Z,3.47
2019-05-14T07:43:58.636Z,9.63
2019-05-14T07:45:12.234Z,5.33
2019-05-14T07:46:28.332Z,6.83
2019-05-14T07:47:44.669Z,6.22
2019-05-14T07:49:08.012Z,3.70
2019-05-14T07:50:15.123Z,7.67
2019-05-14T07:51:28.756Z,6.05
2019-05-14T07:52:45.980Z,4.37
2019-05-14T07:53:59.684Z,6.58
2019-05-14T07:55:12.963Z,4.62
2019-05-14T07:56:29.051Z,4.12
2019-05-14T07:57:45.058Z,7.00
2019-05-14T07:59:01.974Z,5.92
2019-05-14T08:00:13.885Z,7.17
2019-05-14T08:01:28.201Z,2.95
2019-05-14T08:02:43.167Z,2.77
2019-05-14T08:04:00.109Z,7.00
2019-05-14T08:05:13.645Z,5.47
2019-05-14T08:06:28.137Z,5.85
2019-05-14T08:07:41.569Z,8.15
2019-05-14T08:08:55.398Z,5.55
2019-05-14T08:10:09.152Z,4.53
2019-05-14T08:11:23.164Z,5.87
2019-05-14T08:12:39.135Z,5.12
2019-05-14T08:13:53.133Z,7.12
2019-05-14T08:15:15.281Z,4.33
2019-05-14T08:16:22.841Z,4.58
2019-05-14T08:17:38.771Z,4.87
2019-05-14T08:18:52.703Z,5.30
2019-05-14T08:20:09.021Z,4.33
2019-05-14T08:21:22.907Z,5.40
2019-05-14T08:22:38.158Z,8.13
2019-05-14T08:23:51.709Z,6.17
2019-05-14T08:25:08.522Z,3.30
2019-05-14T08:26:22.473Z,5.33
2019-05-14T08:27:38.857Z,5.85
2019-05-14T08:28:52.918Z,5.92
2019-05-14T08:30:08.298Z,3.33
2019-05-14T08:31:22.141Z,5.35
2019-05-14T08:32:35.407Z,4.87
2019-05-14T08:33:50.851Z,4.20
2019-05-14T08:35:06.378Z,6.28
2019-05-14T08:36:20.189Z,6.60
2019-05-14T08:37:33.470Z,6.97
2019-05-14T08:38:50.149Z,5.85
2019-05-14T08:40:02.725Z,13.32
2019-05-14T08:41:16.611Z,13.88
2019-05-14T08:42:34.188Z,5.53
2019-05-14T08:43:49.099Z,6.85
2019-05-14T08:45:04.622Z,4.05
2019-05-14T08:46:22.381Z,4.03
2019-05-14T08:47:35.710Z,4.97
2019-05-14T08:48:49.926Z,5.95
2019-05-14T08:50:08.813Z,8.03
2019-05-14T08:51:23.454Z,6.97
2019-05-14T08:52:38.986Z,6.15
2019-05-14T08:53:52.273Z,9.90
2019-05-14T08:55:10.965Z,4.33
2019-05-14T08:56:24.561Z,6.37
2019-05-14T08:57:38.687Z,4.95
2019-05-14T08:58:52.806Z,7.72
2019-05-14T09:00:13.858Z,4.30
2019-05-14T09:01:23.692Z,6.37
2019-05-14T09:02:39.337Z,8.60
2019-05-14T09:03:52.673Z,3.50
2019-05-14T09:05:09.836Z,8.18
2019-05-14T09:06:24.776Z,4.53
2019-05-14T09:07:38.532Z,6.05
2019-05-14T09:08:52.414Z,3.83
2019-05-14T09:10:08.701Z,11.57
2019-05-14T09:11:34.257Z,9.93
2019-05-14T09:12:41.899Z,7.47
2019-05-14T09:13:55.725Z,13.75
2019-05-14T09:15:11.910Z,8.00
2019-05-14T09:16:41.758Z,7.70
2019-05-14T09:17:40.995Z,7.15
2019-05-14T09:18:54.882Z,6.08
2019-05-14T09:20:11.037Z,4.40
2019-05-14T09:21:24.801Z,6.75
2019-05-14T09:22:39.724Z,6.50
2019-05-14T09:23:54.056Z,8.30
2019-05-14T09:25:09.252Z,5.08
2019-05-14T09:26:23.148Z,6.37
2019-05-14T09:27:38.919Z,5.53
2019-05-14T09:28:54.558Z,6.72
2019-05-14T09:30:09.619Z,7.50
2019-05-14T09:31:23.703Z,4.50
2019-05-14T09:32:41.872Z,5.47
2019-05-14T09:34:00.955Z,5.60
2019-05-14T09:35:14.433Z,5.75
2019-05-14T09:36:28.996Z,10.88
2019-05-14T09:37:42.493Z,7.33
2019-05-14T09:38:58.363Z,9.03
2019-05-14T09:40:11.307Z,8.95
2019-05-14T09:41:27.751Z,6.28
2019-05-14T09:42:40.102Z,5.90
2019-05-14T09:43:53.919Z,5.87
2019-05-14T09:45:10.970Z,5.75
2019-05-14T09:46:24.377Z,4.15
2019-05-14T09:47:38.756Z,7.92
2019-05-14T09:48:52.917Z,6.72
2019-05-14T09:50:16.358Z,7.35
2019-05-14T09:51:22.186Z,5.20
2019-05-14T09:52:35.534Z,4.15
2019-05-14T09:53:53.480Z,4.75
2019-05-14T09:55:09.330Z,4.75
2019-05-14T09:56:22.702Z,5.90
2019-05-14T09:57:38.600Z,5.75
2019-05-14T09:58:52.320Z,5.62
2019-05-14T10:00:09.230Z,3.83
2019-05-14T10:01:23.083Z,5.08
2019-05-14T10:02:39.285Z,4.53
2019-05-14T10:03:58.974Z,7.92
2019-05-14T10:05:11.525Z,8.13
2019-05-14T10:06:28.405Z,3.87
2019-05-14T10:07:41.893Z,6.50
2019-05-14T10:08:59.091Z,5.17
2019-05-14T10:10:12.577Z,5.40
2019-05-14T10:11:30.793Z,3.72
2019-05-14T10:12:52.887Z,9.00
2019-05-14T10:13:59.985Z,9.05
2019-05-14T10:15:13.374Z,4.78
2019-05-14T10:16:29.109Z,5.15
2019-05-14T10:17:42.635Z,5.37
2019-05-14T10:18:56.493Z,6.75
2019-05-14T10:20:09.976Z,8.35
2019-05-14T10:21:29.079Z,6.35
2019-05-14T10:22:41.613Z,4.95
2019-05-14T10:23:55.427Z,8.08
2019-05-14T10:25:09.241Z,7.00
2019-05-14T10:26:23.200Z,6.33
2019-05-14T10:27:36.691Z,4.87
2019-05-14T10:28:50.500Z,7.85
2019-05-14T10:30:11.114Z,5.65
2019-05-14T10:31:24.931Z,2.50
2019-05-14T10:32:41.655Z,4.17
2019-05-14T10:33:55.393Z,5.53
2019-05-14T10:35:10.289Z,3.37
2019-05-14T10:36:25.192Z,6.17
2019-05-14T10:37:40.080Z,5.53
2019-05-14T10:38:54.085Z,6.05
2019-05-14T10:40:10.113Z,4.97
2019-05-14T10:41:24.133Z,4.25
2019-05-14T10:42:39.963Z,4.33
2019-05-14T10:43:52.970Z,5.08
2019-05-14T10:45:12.805Z,3.55
2019-05-14T10:46:28.661Z,4.17
2019-05-14T10:47:46.161Z,6.03
2019-05-14T10:49:16.631Z,5.37
2019-05-14T10:50:18.169Z,6.53
2019-05-14T10:51:31.602Z,5.42
2019-05-14T10:52:44.861Z,5.95
2019-05-14T10:54:00.519Z,6.47
2019-05-14T10:55:13.998Z,5.05
2019-05-14T10:56:29.784Z,6.42
2019-05-14T10:57:54.082Z,5.62
2019-05-14T10:59:09.506Z,6.72
2019-05-14T11:00:22.917Z,10.82
2019-05-14T11:01:38.931Z,5.87
2019-05-14T11:02:53.101Z,4.37
2019-05-14T11:04:08.236Z,5.78
2019-05-14T11:05:22.841Z,6.28
2019-05-14T11:06:39.987Z,14.38
2019-05-14T11:07:55.263Z,8.43
2019-05-14T11:09:09.331Z,5.97
2019-05-14T11:10:26.323Z,6.42
2019-05-14T11:11:40.592Z,9.90
2019-05-14T11:12:55.028Z,4.58
2019-05-14T11:14:09.555Z,3.30
2019-05-14T11:15:22.932Z,6.45
2019-05-14T11:16:41.620Z,3.08
2019-05-14T11:17:52.112Z,3.60
2019-05-14T11:19:09.073Z,4.78
2019-05-14T11:20:21.082Z,3.47
2019-05-14T11:21:34.972Z,4.35
2019-05-14T11:22:49.028Z,4.08
2019-05-14T11:24:03.139Z,4.62
2019-05-14T11:25:16.409Z,4.25
2019-05-14T11:26:30.241Z,3.90
2019-05-14T11:27:43.502Z,5.60
2019-05-14T11:28:58.481Z,4.87
2019-05-14T11:30:19.034Z,4.62
2019-05-14T11:31:34.961Z,4.03
2019-05-14T11:32:49.882Z,5.42
2019-05-14T11:34:03.785Z,3.20
2019-05-14T11:35:19.141Z,4.12
2019-05-14T11:36:32.803Z,2.05
2019-05-14T11:37:48.021Z,3.05
2019-05-14T11:39:04.046Z,2.00
2019-05-14T11:40:18.967Z,2.37
2019-05-14T11:41:33.130Z,2.35
2019-05-14T11:42:46.402Z,2.62
2019-05-14T11:44:00.209Z,4.25
2019-05-14T11:45:13.557Z,3.52
2019-05-14T11:46:41.943Z,2.42
2019-05-14T11:47:42.385Z,2.40
2019-05-14T11:48:59.207Z,4.45
2019-05-14T11:50:11.197Z,3.20
2019-05-14T11:51:54.702Z,3.10
2019-05-14T11:52:40.090Z,3.83
2019-05-14T11:53:53.967Z,2.52
2019-05-14T11:55:09.011Z,3.22
2019-05-14T11:56:23.005Z,2.45
2019-05-14T11:57:36.269Z,1.70
2019-05-14T11:58:50.088Z,3.10
2019-05-14T12:00:08.559Z,1.85
2019-05-14T12:01:22.604Z,4.37
2019-05-14T12:02:38.281Z,2.10
2019-05-14T12:03:51.425Z,2.33
2019-05-14T12:05:05.943Z,4.65
2019-05-14T12:06:19.794Z,2.67
2019-05-14T12:07:34.340Z,3.33
2019-05-14T12:08:48.153Z,4.25
2019-05-14T12:10:01.421Z,2.58
2019-05-14T12:11:19.298Z,2.87
2019-05-14T12:12:31.242Z,2.47
2019-05-14T12:13:45.175Z,3.37
2019-05-14T12:14:58.525Z,2.95
2019-05-14T12:16:12.341Z,4.40
2019-05-14T12:17:25.628Z,4.42
2019-05-14T12:18:41.783Z,2.80
2019-05-14T12:19:54.463Z,4.22
2019-05-14T12:21:08.981Z,5.95
2019-05-14T12:22:23.002Z,2.12
2019-05-14T12:23:39.148Z,4.37
2019-05-14T12:24:51.831Z,3.45
2019-05-14T12:26:05.690Z,4.75
2019-05-14T12:27:19.772Z,4.58
2019-05-14T12:28:35.265Z,3.75
2019-05-14T12:29:49.815Z,3.25
2019-05-14T12:31:04.034Z,3.12
2019-05-14T12:32:18.901Z,2.65
2019-05-14T12:33:33.041Z,1.67
2019-05-14T12:34:48.711Z,2.58
2019-05-14T12:36:02.627Z,3.80
2019-05-14T12:37:18.393Z,5.05
2019-05-14T12:38:31.455Z,2.52
2019-05-14T12:39:44.742Z,3.65
2019-05-14T12:40:58.666Z,4.00
2019-05-14T12:42:12.613Z,6.87
2019-05-14T12:43:28.225Z,2.75
2019-05-14T12:44:41.662Z,3.42
2019-05-14T12:45:55.489Z,2.77
2019-05-14T12:47:09.468Z,2.08
2019-05-14T12:48:23.321Z,3.58
2019-05-14T12:49:38.540Z,2.67
2019-05-14T12:50:51.729Z,2.10
2019-05-14T12:52:20.984Z,2.80
2019-05-14T12:53:20.570Z,2.42
2019-05-14T12:54:34.028Z,3.22
2019-05-14T12:55:48.983Z,4.12
2019-05-14T12:57:02.434Z,1.85
2019-05-14T12:58:19.806Z,1.95
2019-05-14T12:59:31.544Z,3.08
2019-05-14T13:00:45.181Z,3.22
2019-05-14T13:01:58.857Z,2.20
2019-05-14T13:03:12.561Z,3.08
2019-05-14T13:04:28.412Z,1.87
2019-05-14T13:05:41.617Z,5.72
2019-05-14T13:06:59.540Z,6.40
2019-05-14T13:08:13.846Z,2.80
2019-05-14T13:09:27.327Z,2.90
2019-05-14T13:10:41.021Z,4.50
2019-05-14T13:11:54.481Z,2.67
2019-05-14T13:13:08.539Z,1.75
2019-05-14T13:14:22.043Z,1.60
2019-05-14T13:15:35.707Z,3.92
2019-05-14T13:16:49.155Z,2.17
2019-05-14T13:18:02.789Z,3.35
2019-05-14T13:19:16.244Z,5.08
2019-05-14T13:20:29.906Z,3.08
2019-05-14T13:21:43.362Z,1.20
2019-05-14T13:22:56.990Z,0.95
2019-05-14T13:24:10.437Z,1.02
2019-05-14T13:25:24.089Z,1.10
2019-05-14T13:26:39.063Z,1.50
2019-05-14T13:27:53.864Z,2.67
2019-05-14T13:29:10.573Z,2.17
2019-05-14T13:30:22.745Z,1.10
2019-05-14T13:31:36.422Z,1.47
2019-05-14T13:32:50.282Z,1.30
2019-05-14T13:34:03.803Z,2.40
2019-05-14T13:35:19.561Z,1.05
2019-05-14T13:36:32.614Z,5.20
2019-05-14T13:37:48.825Z,3.08
2019-05-14T13:39:01.437Z,4.08
2019-05-14T13:40:15.294Z,3.60
2019-05-14T13:41:28.778Z,0.90
2019-05-14T13:42:44.762Z,1.77
2019-05-14T13:43:58.821Z,1.90
2019-05-14T13:45:12.753Z,2.62
2019-05-14T13:46:28.482Z,2.45
2019-05-14T13:47:41.596Z,3.10
2019-05-14T13:48:58.795Z,4.35
2019-05-14T13:50:12.114Z,5.67
2019-05-14T13:51:29.413Z,4.00
2019-05-14T13:52:58.256Z,3.80
2019-05-14T13:53:58.754Z,3.95
2019-05-14T13:55:11.634Z,2.45
2019-05-14T13:56:25.354Z,2.27
2019-05-14T13:57:40.047Z,2.50
2019-05-14T13:58:53.735Z,2.75
2019-05-14T14:00:11.964Z,3.65
2019-05-14T14:01:22.754Z,1.70
2019-05-14T14:02:36.412Z,1.90
2019-05-14T14:04:03.815Z,4.15
2019-05-14T14:05:08.565Z,3.40
2019-05-14T14:06:22.460Z,3.60
2019-05-14T14:07:39.097Z,3.33
2019-05-14T14:08:51.435Z,2.25
2019-05-14T14:10:05.509Z,1.42
2019-05-14T14:11:20.609Z,1.47
2019-05-14T14:12:34.249Z,2.95
2019-05-14T14:13:49.015Z,1.25
2019-05-14T14:15:02.802Z,1.47
2019-05-14T14:16:16.192Z,4.12
2019-05-14T14:17:30.566Z,1.70
2019-05-14T14:18:44.157Z,2.20
2019-05-14T14:19:58.920Z,1.87
2019-05-14T14:21:12.661Z,2.95
2019-05-14T14:22:26.314Z,2.30
2019-05-14T14:23:39.773Z,1.07
2019-05-14T14:24:53.415Z,1.30
2019-05-14T14:26:09.464Z,1.87
2019-05-14T14:27:23.406Z,1.67
2019-05-14T14:28:39.267Z,2.95
2019-05-14T14:29:52.214Z,1.47
2019-05-14T14:31:08.178Z,3.20
2019-05-14T14:32:21.119Z,1.32
2019-05-14T14:33:34.581Z,3.35
2019-05-14T14:34:49.545Z,1.87
2019-05-14T14:36:03.219Z,1.42
2019-05-14T14:37:19.272Z,2.60
2019-05-14T14:38:32.249Z,2.45
2019-05-14T14:39:48.369Z,2.65
2019-05-14T14:41:01.044Z,2.47
2019-05-14T14:42:15.063Z,3.10
2019-05-14T14:43:29.469Z,2.42
2019-05-14T14:44:43.817Z,2.65
2019-05-14T14:45:59.353Z,3.65
2019-05-14T14:47:12.615Z,1.72
2019-05-14T14:48:26.068Z,4.40
2019-05-14T14:49:43.336Z,4.10
2019-05-14T14:50:55.128Z,4.72
2019-05-14T14:52:11.993Z,4.28
2019-05-14T14:53:41.361Z,2.45
2019-05-14T14:54:39.642Z,2.10
2019-05-14T14:55:53.334Z,3.05
2019-05-14T14:57:08.495Z,2.70
2019-05-14T14:58:22.055Z,2.42
2019-05-14T14:59:35.685Z,2.27
2019-05-14T15:00:49.407Z,1.70
2019-05-14T15:02:03.893Z,3.72
2019-05-14T15:03:21.172Z,3.25
2019-05-14T15:04:34.340Z,4.67
2019-05-14T15:05:49.866Z,2.90
2019-05-14T15:07:03.172Z,3.55
2019-05-14T15:08:16.625Z,2.10
2019-05-14T15:09:30.259Z,1.50
2019-05-14T15:10:43.707Z,1.60
2019-05-14T15:11:59.798Z,2.35
2019-05-14T15:13:12.582Z,1.40
2019-05-14T15:14:29.642Z,1.62
2019-05-14T15:15:41.589Z,1.25
2019-05-14T15:16:55.232Z,1.70
2019-05-14T15:18:10.059Z,2.12
2019-05-14T15:19:24.119Z,1.52
2019-05-14T15:20:37.573Z,2.40
2019-05-14T15:21:51.477Z,2.35
2019-05-14T15:23:04.985Z,2.30
2019-05-14T15:24:19.627Z,3.95
2019-05-14T15:25:33.441Z,2.30
2019-05-14T15:26:48.454Z,3.42
2019-05-14T15:28:01.979Z,4.37
2019-05-14T15:29:15.649Z,4.60
2019-05-14T15:30:29.099Z,1.75
2019-05-14T15:31:42.735Z,1.72
2019-05-14T15:32:56.177Z,1.10
2019-05-14T15:34:09.819Z,2.72
2019-05-14T15:35:23.277Z,5.35
2019-05-14T15:36:41.391Z,1.98
2019-05-14T15:37:52.089Z,5.20
2019-05-14T15:39:09.628Z,2.12
2019-05-14T15:40:25.006Z,2.35
2019-05-14T15:41:39.339Z,1.62
2019-05-14T15:42:53.135Z,2.00
2019-05-14T15:44:09.082Z,1.70
2019-05-14T15:45:22.666Z,2.87
2019-05-14T15:46:41.606Z,2.62
2019-05-14T15:47:51.489Z,2.67
2019-05-14T15:49:05.355Z,1.47
2019-05-14T15:50:20.024Z,3.15
2019-05-14T15:51:34.041Z,1.92
2019-05-14T15:52:48.720Z,2.37
2019-05-14T15:54:15.559Z,1.52
2019-05-14T15:55:18.356Z,3.30
2019-05-14T15:56:32.114Z,1.67
2019-05-14T15:57:45.806Z,2.67
2019-05-14T15:59:01.497Z,5.22
2019-05-14T16:00:14.690Z,5.83
2019-05-14T16:01:28.605Z,7.83
2019-05-14T16:02:42.213Z,7.95
2019-05-14T16:03:56.012Z,2.17
2019-05-14T16:05:10.195Z,1.75
2019-05-14T16:06:24.072Z,1.20
2019-05-14T16:07:39.061Z,2.50
2019-05-14T16:08:53.065Z,1.90
2019-05-14T16:10:08.573Z,2.02
2019-05-14T16:11:21.877Z,3.02
2019-05-14T16:12:35.339Z,2.12
2019-05-14T16:13:49.512Z,1.32
2019-05-14T16:15:03.885Z,1.72
2019-05-14T16:16:19.470Z,4.85
2019-05-14T16:17:32.715Z,2.33
2019-05-14T16:18:48.029Z,1.60
2019-05-14T16:20:01.658Z,2.75
2019-05-14T16:21:18.036Z,3.70
2019-05-14T16:22:31.034Z,1.90
2019-05-14T16:23:45.483Z,3.83
2019-05-14T16:25:00.987Z,4.12
2019-05-14T16:26:14.334Z,1.70
2019-05-14T16:27:29.835Z,2.92
2019-05-14T16:28:43.286Z,2.47
2019-05-14T16:29:58.595Z,3.22
2019-05-14T16:31:12.209Z,2.30
2019-05-14T16:32:28.078Z,1.40